Biggs Army Air Field (Fort Bliss)
KBIF : now visible

Airfield :











YOU CAN JOIN US ON...

 
LOGIN :

Register | Disclaimer

   EN    FR    IT 

 









Legend :    VFR   Marginal VFR   IFR   Intensive IFR   Very Intensive IFR
Visi :
Ceiling :
>= 8 km
>= 3000ft
5 to 8 km
1000 to 3000 ft
1500m to 5 km
500 to 1000 ft
800 to 1500m
200 to 500 ft
< 800m
< 200 ft
Symbols :   Thunderstorms  Fog  Heavy snow  Heavy precipitations  Wind > 20 kt







- Airport Elevation : 3946 ft


KBIF - Biggs Army Air Field (Fort Bliss)

CURRENT METAR :
  • 181858Z AUTO 15004KT 10SM FEW330 33/14 A3000 RMK AO2 SLPNO T03340141 $

EXPIRED METARs :
  • 181758Z AUTO 02004KT 10SM CLR 32/14 A3002 RMK AO2 SLP092 T03160136 10317 20234 57012 $

TAF TAF KBIF
Valid from the 18 at 14:00 until the 19 at 20:00 UTC


181403Z 1814/1920 21015KT 9999 SCT160 QNH3003INS
BECMG 1821/1822 22009KT 9999 VCTS SCT100CB QNH2993INS
TEMPO 1900/1904 VRB20G30KT 8000 -TSRA SCT080CB
BECMG 1905/1906 VRB06KT 9999 NSW SCT080 QNH2991INS
BECMG 1909/1910 25009KT 9999 SCT080 BKN100 QNH2992INS
BECMG 1915/1916 22014KT 9999 SKC QNH2997INS TX36/1820Z TN23/1911Z
KZAB FIR / North America



MET'MAP, your aeronautical weather chart ! - Copyright ORBIFLY December 2007 - Disclaimer

ORBIFLY MET'MAP TEAM :

Programming & Development : Alexandra Zaïnal
Concept & Development : Baudouin d'Aumeries
Co-Development & Prog : Marc-Olivier Méhu
Technical & hardware support : Manuel Goepfert

Contact : metmap@orbifly.com




SOURCES & CREDITS :

   NOAA       Earth
Advisory